Terminal Aerodrome Forecast
Issued by NWS Chicago, IL

Home | Current Version | Previous Version | Graphics & Text | Print | Product List | Glossary On
Versions: 1 2 3 4 5 6 7 8 9 10 11 12 13 14 15 16 17 18 19 20 21 22 23 24
377
FTUS43 KLOT 162103 AAA
TAFRFD
TAF AMD
KRFD 162103Z 1621/1718 31010KT P6SM FEW025
     FM162300 30005KT P6SM SCT030 SCT080
     FM170600 27007KT P6SM FEW007 SCT120 BKN180
     FM171200 26006KT P6SM BKN100=

USA.gov is the U.S. government's official web portal to all federal, state and local government web resources and services.